Time;durP1;ratioP1;P1;durP2;ratioP2;P2;SDS_P1;SDS_P2;PMS_P1;PMS_P2;Temp;Humidity;BMP_temperature;BMP_pressure;BME280_temperature;BME280_humidity;BME280_pressure;Samples;Min_cycle;Max_cycle;Signal;HPM_P1;HPM_P2
2024/03/15 00:00:53;;;;;;;126.50;19.00;;;;;;;;;;5072981;28;20367;-40
2024/03/15 00:03:21;;;;;;;115.22;18.83;;;;;;;;;;5069908;28;20036;-39
2024/03/15 00:05:48;;;;;;;100.85;16.70;;;;;;;;;;5070505;28;20087;-39
2024/03/15 00:08:15;;;;;;;93.00;16.20;;;;;;;;;;5071809;28;20406;-37
2024/03/15 00:10:43;;;;;;;76.15;14.20;;;;;;;;;;5067232;28;20036;-41
2024/03/15 00:13:11;;;;;;;70.53;13.95;;;;;;;;;;5062125;28;20402;-38
2024/03/15 00:15:39;;;;;;;91.93;15.98;;;;;;;;;;5072783;28;20383;-39
2024/03/15 00:18:06;;;;;;;94.05;16.42;;;;;;;;;;5072968;28;20040;-41
2024/03/15 00:20:34;;;;;;;75.60;14.30;;;;;;;;;;5062630;28;20033;-36
2024/03/15 00:23:00;;;;;;;62.60;13.75;;;;;;;;;;5071377;28;20094;-40
2024/03/15 00:25:27;;;;;;;74.38;15.85;;;;;;;;;;5066721;28;20382;-39
2024/03/15 00:27:54;;;;;;;74.88;15.32;;;;;;;;;;5060760;28;20426;-38
2024/03/15 00:30:23;;;;;;;60.88;12.57;;;;;;;;;;5071218;28;20028;-38
2024/03/15 00:32:52;;;;;;;68.72;13.23;;;;;;;;;;5072447;28;20082;-40
2024/03/15 00:35:22;;;;;;;63.67;12.32;;;;;;;;;;5072098;28;20081;-36
2024/03/15 00:37:49;;;;;;;53.75;11.73;;;;;;;;;;5072869;28;20058;-37
2024/03/15 00:40:16;;;;;;;63.58;12.02;;;;;;;;;;5064869;28;20033;-37
2024/03/15 00:42:43;;;;;;;47.03;9.77;;;;;;;;;;5072557;28;20029;-36
2024/03/15 00:45:10;;;;;;;36.55;9.02;;;;;;;;;;5072440;28;20086;-39
2024/03/15 00:47:37;;;;;;;41.60;9.35;;;;;;;;;;5067112;28;20475;-38
2024/03/15 00:50:04;;;;;;;46.33;8.55;;;;;;;;;;5054238;28;20375;-40
2024/03/15 00:52:37;;;;;;;46.67;8.48;;;;;;;;;;5054694;28;20110;-37
2024/03/15 00:55:04;;;;;;;43.60;9.05;;;;;;;;;;5056533;28;20059;-35
2024/03/15 00:57:31;;;;;;;43.17;8.80;;;;;;;;;;5053142;28;20104;-37
2024/03/15 00:59:58;;;;;;;51.28;10.70;;;;;;;;;;5053719;28;20035;-37
2024/03/15 01:02:25;;;;;;;41.85;9.38;;;;;;;;;;5063606;28;20029;-36
2024/03/15 01:04:52;;;;;;;47.42;9.52;;;;;;;;;;5066944;28;20039;-37
2024/03/15 01:07:20;;;;;;;42.58;9.82;;;;;;;;;;5057096;28;20049;-35
2024/03/15 01:09:47;;;;;;;37.97;9.07;;;;;;;;;;5057565;28;20033;-36
2024/03/15 01:12:16;;;;;;;36.15;8.70;;;;;;;;;;5056293;28;20017;-36
2024/03/15 01:14:45;;;;;;;44.75;8.40;;;;;;;;;;5057800;28;20025;-39
2024/03/15 01:17:12;;;;;;;34.72;8.57;;;;;;;;;;5054072;28;20036;-34
2024/03/15 01:19:39;;;;;;;40.25;9.20;;;;;;;;;;5060403;28;20032;-35
2024/03/15 01:22:07;;;;;;;46.22;9.07;;;;;;;;;;5058982;28;20024;-37
2024/03/15 01:24:34;;;;;;;38.70;9.23;;;;;;;;;;5065540;28;20037;-35
2024/03/15 01:27:01;;;;;;;55.33;10.30;;;;;;;;;;5062457;28;20143;-34
2024/03/15 01:29:28;;;;;;;53.88;10.82;;;;;;;;;;5064602;28;20028;-40
2024/03/15 01:31:56;;;;;;;29.15;9.57;;;;;;;;;;5071749;28;20035;-38
2024/03/15 01:34:23;;;;;;;40.65;9.93;;;;;;;;;;5067619;28;20025;-39
2024/03/15 01:36:50;;;;;;;39.22;10.80;;;;;;;;;;5070948;28;20025;-36
2024/03/15 01:39:18;;;;;;;45.55;10.52;;;;;;;;;;5064298;28;20052;-39
2024/03/15 01:41:45;;;;;;;36.60;9.32;;;;;;;;;;5065879;28;20063;-33
2024/03/15 01:44:13;;;;;;;34.08;9.43;;;;;;;;;;5064296;28;20039;-34
2024/03/15 01:46:40;;;;;;;40.28;8.90;;;;;;;;;;5069444;28;20123;-33
2024/03/15 01:49:08;;;;;;;49.15;9.73;;;;;;;;;;5063980;28;20032;-35
2024/03/15 01:51:36;;;;;;;31.08;9.38;;;;;;;;;;5067936;28;20092;-37
2024/03/15 01:54:03;;;;;;;39.30;8.73;;;;;;;;;;5062738;28;20032;-39
2024/03/15 01:56:30;;;;;;;40.55;10.15;;;;;;;;;;5061911;28;20025;-36
2024/03/15 01:58:57;;;;;;;39.15;9.88;;;;;;;;;;5084110;28;20062;-33
2024/03/15 02:01:24;;;;;;;33.40;9.25;;;;;;;;;;5082923;28;20023;-34
2024/03/15 02:03:52;;;;;;;33.03;8.70;;;;;;;;;;5089183;28;20036;-37
2024/03/15 02:06:21;;;;;;;34.95;9.27;;;;;;;;;;5055858;28;20036;-36
2024/03/15 02:08:50;;;;;;;40.47;8.20;;;;;;;;;;5051011;28;20059;-34
2024/03/15 02:11:17;;;;;;;38.90;8.60;;;;;;;;;;5051419;28;20036;-34
2024/03/15 02:13:44;;;;;;;26.40;8.50;;;;;;;;;;5062202;28;20031;-36
2024/03/15 02:16:11;;;;;;;31.45;8.05;;;;;;;;;;5081894;28;20032;-34
2024/03/15 02:18:38;;;;;;;28.98;8.13;;;;;;;;;;5072631;28;20037;-33
2024/03/15 02:21:05;;;;;;;21.13;7.60;;;;;;;;;;5061754;28;20039;-35
2024/03/15 02:23:32;;;;;;;20.58;7.30;;;;;;;;;;5068596;28;20025;-36
2024/03/15 02:25:59;;;;;;;28.08;7.15;;;;;;;;;;5058194;28;20047;-34
2024/03/15 02:28:26;;;;;;;22.27;6.88;;;;;;;;;;5077231;28;20024;-34
2024/03/15 02:30:54;;;;;;;21.85;7.25;;;;;;;;;;5065133;28;20036;-35
2024/03/15 02:33:21;;;;;;;25.58;7.63;;;;;;;;;;5060296;28;20051;-36
2024/03/15 02:35:48;;;;;;;20.17;7.13;;;;;;;;;;5077313;28;20032;-33
2024/03/15 02:38:16;;;;;;;19.48;7.60;;;;;;;;;;5076150;28;20032;-34
2024/03/15 02:40:43;;;;;;;23.25;7.97;;;;;;;;;;5078249;28;20487;-35
2024/03/15 02:43:10;;;;;;;24.65;8.20;;;;;;;;;;5080978;28;20066;-33
2024/03/15 02:45:37;;;;;;;23.50;8.15;;;;;;;;;;5080744;28;20097;-35
2024/03/15 02:48:04;;;;;;;19.13;7.40;;;;;;;;;;5080133;28;20036;-36
2024/03/15 02:50:31;;;;;;;24.15;6.90;;;;;;;;;;5077143;28;20025;-35
2024/03/15 02:52:59;;;;;;;15.32;7.63;;;;;;;;;;5080431;28;20067;-35
2024/03/15 02:55:27;;;;;;;18.75;7.72;;;;;;;;;;5081505;28;20108;-36
2024/03/15 02:57:54;;;;;;;20.08;8.40;;;;;;;;;;5079732;28;20123;-34
2024/03/15 03:00:21;;;;;;;18.00;7.60;;;;;;;;;;5078490;28;20040;-35
2024/03/15 03:02:49;;;;;;;18.88;7.47;;;;;;;;;;5082919;28;20109;-34
2024/03/15 03:05:16;;;;;;;21.48;8.68;;;;;;;;;;5086208;28;20101;-37
2024/03/15 03:07:43;;;;;;;18.35;8.20;;;;;;;;;;5085407;28;20131;-34
2024/03/15 03:10:10;;;;;;;16.92;7.60;;;;;;;;;;5086179;28;20039;-34
2024/03/15 03:12:37;;;;;;;21.50;7.78;;;;;;;;;;5083824;28;20070;-35
2024/03/15 03:15:04;;;;;;;17.52;6.95;;;;;;;;;;5082242;28;20032;-37
2024/03/15 03:17:31;;;;;;;17.83;7.00;;;;;;;;;;5083573;28;20051;-34
2024/03/15 03:19:59;;;;;;;17.65;7.43;;;;;;;;;;5083676;28;20032;-38
2024/03/15 03:22:26;;;;;;;23.23;7.88;;;;;;;;;;5085111;28;20032;-36
2024/03/15 03:24:53;;;;;;;21.67;7.03;;;;;;;;;;5083246;28;20032;-35
2024/03/15 03:27:20;;;;;;;13.77;6.78;;;;;;;;;;5083436;28;20028;-34
2024/03/15 03:29:48;;;;;;;20.98;7.38;;;;;;;;;;5084740;28;20549;-34
2024/03/15 03:32:15;;;;;;;16.95;7.28;;;;;;;;;;5082655;28;20028;-35
2024/03/15 03:34:41;;;;;;;17.88;7.28;;;;;;;;;;5091350;28;20043;-35
2024/03/15 03:37:08;;;;;;;18.40;7.05;;;;;;;;;;5094169;28;20181;-34
2024/03/15 03:39:35;;;;;;;17.63;6.97;;;;;;;;;;5075903;28;20034;-34
2024/03/15 03:42:04;;;;;;;16.45;6.75;;;;;;;;;;5094266;28;20020;-36
2024/03/15 03:44:32;;;;;;;13.52;6.13;;;;;;;;;;5094107;28;20043;-33
2024/03/15 03:47:03;;;;;;;14.98;5.72;;;;;;;;;;5093986;28;20561;-36
2024/03/15 03:49:29;;;;;;;12.70;5.72;;;;;;;;;;5093828;28;20111;-36
2024/03/15 03:52:00;;;;;;;11.43;5.65;;;;;;;;;;5094050;28;20081;-34
2024/03/15 03:54:27;;;;;;;12.48;6.38;;;;;;;;;;5094081;28;20040;-34
2024/03/15 03:56:54;;;;;;;14.20;5.53;;;;;;;;;;5094120;28;20024;-34
2024/03/15 03:59:21;;;;;;;14.95;5.93;;;;;;;;;;5093885;28;20051;-33
2024/03/15 04:01:48;;;;;;;14.90;6.00;;;;;;;;;;5075580;28;20050;-35
2024/03/15 04:04:15;;;;;;;12.85;5.90;;;;;;;;;;5093853;28;20036;-33
2024/03/15 04:06:51;;;;;;;11.63;5.40;;;;;;;;;;5093752;28;20032;-34
2024/03/15 04:09:22;;;;;;;10.07;5.20;;;;;;;;;;5067894;28;20049;-34
2024/03/15 04:11:49;;;;;;;10.85;5.40;;;;;;;;;;5073466;28;20510;-35
2024/03/15 04:14:16;;;;;;;12.85;5.28;;;;;;;;;;5071666;28;20047;-34
2024/03/15 04:16:44;;;;;;;7.53;4.88;;;;;;;;;;5073043;28;20059;-34
2024/03/15 04:19:12;;;;;;;15.30;5.38;;;;;;;;;;5072824;28;20040;-33
2024/03/15 04:21:41;;;;;;;9.82;4.60;;;;;;;;;;5073165;28;20032;-33
2024/03/15 04:24:09;;;;;;;14.05;5.13;;;;;;;;;;5067829;28;20082;-35
2024/03/15 04:26:37;;;;;;;11.68;5.05;;;;;;;;;;5068132;28;20123;-34
2024/03/15 04:29:05;;;;;;;11.38;5.18;;;;;;;;;;5072319;28;20032;-35
2024/03/15 04:31:33;;;;;;;8.20;4.90;;;;;;;;;;5073152;28;20059;-33
2024/03/15 04:34:00;;;;;;;10.55;5.10;;;;;;;;;;5073717;28;20028;-36
2024/03/15 04:36:30;;;;;;;12.77;4.63;;;;;;;;;;5070924;28;20028;-33
2024/03/15 04:38:58;;;;;;;14.43;5.40;;;;;;;;;;5073217;28;20121;-36
2024/03/15 04:41:25;;;;;;;11.60;5.20;;;;;;;;;;5072716;28;20765;-36
2024/03/15 04:43:52;;;;;;;14.30;4.82;;;;;;;;;;5072673;28;20032;-33
2024/03/15 04:46:19;;;;;;;13.27;4.72;;;;;;;;;;5070556;28;20043;-33
2024/03/15 04:48:47;;;;;;;11.23;4.47;;;;;;;;;;5072189;28;20112;-35
2024/03/15 04:51:14;;;;;;;9.85;3.85;;;;;;;;;;5072567;28;20038;-33
2024/03/15 04:53:41;;;;;;;9.73;4.30;;;;;;;;;;5072654;28;20029;-33
2024/03/15 04:56:08;;;;;;;10.38;4.43;;;;;;;;;;5071385;28;20024;-33
2024/03/15 04:58:35;;;;;;;13.35;4.63;;;;;;;;;;5072737;28;20021;-34
2024/03/15 05:01:04;;;;;;;12.95;4.25;;;;;;;;;;5072424;28;20085;-36
2024/03/15 05:03:32;;;;;;;7.35;3.78;;;;;;;;;;5072617;28;20028;-35
2024/03/15 05:05:59;;;;;;;8.95;4.20;;;;;;;;;;5072406;28;20051;-35
2024/03/15 05:08:27;;;;;;;8.00;3.78;;;;;;;;;;5072404;28;20049;-33
2024/03/15 05:10:55;;;;;;;9.35;3.95;;;;;;;;;;5072363;28;20041;-33
2024/03/15 05:13:22;;;;;;;11.32;4.47;;;;;;;;;;5072499;28;20024;-34
2024/03/15 05:15:49;;;;;;;11.90;4.18;;;;;;;;;;5072446;28;20020;-33
2024/03/15 05:18:16;;;;;;;11.65;4.13;;;;;;;;;;5072378;28;20752;-35
2024/03/15 05:20:43;;;;;;;12.02;4.38;;;;;;;;;;5072390;28;20112;-33
2024/03/15 05:23:10;;;;;;;11.68;4.47;;;;;;;;;;5072246;28;20020;-37
2024/03/15 05:25:37;;;;;;;10.35;4.22;;;;;;;;;;5071357;28;20048;-33
2024/03/15 05:28:04;;;;;;;10.52;4.70;;;;;;;;;;5072111;28;20104;-33
2024/03/15 05:30:31;;;;;;;10.25;3.95;;;;;;;;;;5072187;28;20478;-33
2024/03/15 05:32:58;;;;;;;10.48;3.90;;;;;;;;;;5072137;28;20032;-33
2024/03/15 05:35:25;;;;;;;9.65;3.88;;;;;;;;;;5072382;28;20421;-34
2024/03/15 05:37:52;;;;;;;8.77;3.95;;;;;;;;;;5072055;28;20505;-35
2024/03/15 05:40:21;;;;;;;9.70;4.38;;;;;;;;;;5071868;28;20111;-33
2024/03/15 05:42:48;;;;;;;9.65;3.92;;;;;;;;;;5071855;28;20036;-34
2024/03/15 05:45:15;;;;;;;10.50;4.13;;;;;;;;;;5072222;28;20086;-34
2024/03/15 05:47:43;;;;;;;9.52;3.97;;;;;;;;;;5072361;28;20028;-34
2024/03/15 05:50:11;;;;;;;8.45;3.88;;;;;;;;;;5072335;28;20029;-38
2024/03/15 05:52:38;;;;;;;9.02;3.95;;;;;;;;;;5072394;28;20088;-33
2024/03/15 05:55:07;;;;;;;10.57;4.10;;;;;;;;;;5072447;28;20062;-36
2024/03/15 05:57:34;;;;;;;7.68;3.83;;;;;;;;;;5072681;28;20063;-35
2024/03/15 06:00:11;;;;;;;7.55;3.70;;;;;;;;;;5072171;28;20056;-34
2024/03/15 06:02:38;;;;;;;7.32;3.97;;;;;;;;;;5070933;28;20111;-35
2024/03/15 06:05:05;;;;;;;10.20;3.88;;;;;;;;;;5071760;28;20402;-36
2024/03/15 06:07:32;;;;;;;6.90;3.67;;;;;;;;;;5072029;28;20055;-34
2024/03/15 06:10:00;;;;;;;9.65;3.97;;;;;;;;;;5072263;28;20037;-36
2024/03/15 06:12:30;;;;;;;7.65;4.00;;;;;;;;;;5072131;28;20028;-34
2024/03/15 06:14:57;;;;;;;8.00;3.88;;;;;;;;;;5071942;28;20494;-36
2024/03/15 06:17:24;;;;;;;6.70;4.10;;;;;;;;;;5072140;28;20063;-37
2024/03/15 06:19:51;;;;;;;6.50;3.53;;;;;;;;;;5071935;28;20032;-33
2024/03/15 06:22:19;;;;;;;6.97;3.65;;;;;;;;;;5072189;28;20383;-32
2024/03/15 06:24:46;;;;;;;7.35;3.70;;;;;;;;;;5072175;28;20032;-33
2024/03/15 06:27:16;;;;;;;6.90;3.65;;;;;;;;;;5072084;28;20123;-37
2024/03/15 06:29:50;;;;;;;7.28;4.13;;;;;;;;;;5071876;28;20483;-35
2024/03/15 06:32:17;;;;;;;5.30;3.42;;;;;;;;;;5071860;28;20037;-34
2024/03/15 06:34:44;;;;;;;7.72;3.33;;;;;;;;;;5072068;28;20118;-34
2024/03/15 06:37:17;;;;;;;8.50;4.00;;;;;;;;;;5073022;28;20028;-34
2024/03/15 06:42:37;;;;;;;8.50;3.85;;;;;;;;;;5076223;28;20044;-36
2024/03/15 06:45:23;;;;;;;7.63;4.35;;;;;;;;;;5075450;28;20097;-37
2024/03/15 06:48:03;;;;;;;6.68;4.43;;;;;;;;;;5075613;28;20037;-33
2024/03/15 06:50:37;;;;;;;7.57;4.13;;;;;;;;;;5075584;28;20479;-38
2024/03/15 06:53:04;;;;;;;7.32;3.92;;;;;;;;;;5075175;28;20032;-33
2024/03/15 06:55:31;;;;;;;9.20;4.07;;;;;;;;;;5075105;28;20162;-33
2024/03/15 06:58:00;;;;;;;4.68;3.20;;;;;;;;;;5075367;28;20543;-33
2024/03/15 07:00:29;;;;;;;8.85;4.50;;;;;;;;;;5075512;28;20035;-38
2024/03/15 07:02:56;;;;;;;7.13;3.80;;;;;;;;;;5075637;28;20040;-34
2024/03/15 07:05:25;;;;;;;7.30;3.92;;;;;;;;;;5075237;28;20116;-34
2024/03/15 07:07:53;;;;;;;8.93;3.72;;;;;;;;;;5074611;28;20422;-34
2024/03/15 07:10:20;;;;;;;6.78;3.83;;;;;;;;;;5074641;28;20051;-34
2024/03/15 07:12:49;;;;;;;7.47;4.45;;;;;;;;;;5075362;28;20083;-35
2024/03/15 07:15:18;;;;;;;5.78;3.58;;;;;;;;;;5075153;28;20090;-34
2024/03/15 07:17:46;;;;;;;7.30;4.18;;;;;;;;;;5075096;28;20060;-35
2024/03/15 07:20:13;;;;;;;7.40;4.38;;;;;;;;;;5074960;28;20035;-33
2024/03/15 07:22:40;;;;;;;7.63;3.42;;;;;;;;;;5075233;28;20047;-34
2024/03/15 07:25:10;;;;;;;8.50;4.38;;;;;;;;;;5057019;28;20037;-36
2024/03/15 07:27:41;;;;;;;6.72;3.90;;;;;;;;;;5074872;28;20036;-33
2024/03/15 07:30:12;;;;;;;6.18;3.13;;;;;;;;;;5074868;28;20086;-35
2024/03/15 07:32:39;;;;;;;7.95;3.60;;;;;;;;;;5075053;28;20031;-34
2024/03/15 07:35:09;;;;;;;6.68;3.67;;;;;;;;;;5074931;28;20024;-35
2024/03/15 07:37:37;;;;;;;8.73;3.45;;;;;;;;;;5074921;28;20028;-35
2024/03/15 07:40:11;;;;;;;7.90;3.85;;;;;;;;;;5074843;28;20029;-34
2024/03/15 07:42:38;;;;;;;5.88;3.58;;;;;;;;;;5074768;28;20029;-33
2024/03/15 07:45:05;;;;;;;7.32;4.00;;;;;;;;;;5074625;28;20055;-36
2024/03/15 07:47:33;;;;;;;6.70;3.95;;;;;;;;;;5074829;28;20029;-36
2024/03/15 07:50:01;;;;;;;8.30;4.20;;;;;;;;;;5073432;28;20043;-33
2024/03/15 07:52:28;;;;;;;8.55;3.78;;;;;;;;;;5074611;28;20056;-33
2024/03/15 07:54:55;;;;;;;7.18;3.90;;;;;;;;;;5074576;28;20032;-33
2024/03/15 07:57:22;;;;;;;6.63;3.55;;;;;;;;;;5074475;28;20514;-35
2024/03/15 07:59:49;;;;;;;8.43;3.63;;;;;;;;;;5074410;28;20033;-35
2024/03/15 08:02:16;;;;;;;9.48;3.60;;;;;;;;;;5074123;28;20029;-34
2024/03/15 08:04:47;;;;;;;5.78;3.63;;;;;;;;;;5074277;28;20406;-34
2024/03/15 08:07:15;;;;;;;8.25;4.10;;;;;;;;;;5074184;28;20017;-34
2024/03/15 08:09:44;;;;;;;5.63;3.40;;;;;;;;;;5073880;28;20461;-33
2024/03/15 08:12:14;;;;;;;7.22;4.10;;;;;;;;;;5074223;28;20046;-33
2024/03/15 08:14:42;;;;;;;8.00;4.03;;;;;;;;;;5074045;28;20028;-36
2024/03/15 08:17:10;;;;;;;7.05;3.85;;;;;;;;;;5074081;28;20039;-36
2024/03/15 08:19:39;;;;;;;8.27;4.13;;;;;;;;;;5056060;28;20029;-33
2024/03/15 08:22:07;;;;;;;7.95;4.13;;;;;;;;;;5073963;28;20082;-34
2024/03/15 08:24:36;;;;;;;7.03;3.80;;;;;;;;;;5073948;28;20036;-32
2024/03/15 08:27:03;;;;;;;7.30;4.25;;;;;;;;;;5073926;28;20029;-34
2024/03/15 08:29:30;;;;;;;5.88;4.10;;;;;;;;;;5073837;28;20044;-33
2024/03/15 08:31:57;;;;;;;6.63;3.72;;;;;;;;;;5073765;28;20029;-35
2024/03/15 08:34:26;;;;;;;9.32;4.22;;;;;;;;;;5073677;28;20020;-32
2024/03/15 08:36:55;;;;;;;9.70;4.00;;;;;;;;;;5073522;28;20032;-34
2024/03/15 08:39:24;;;;;;;6.93;4.10;;;;;;;;;;5073476;28;20680;-34
2024/03/15 08:41:51;;;;;;;6.80;4.07;;;;;;;;;;5073435;28;20524;-34
2024/03/15 08:44:18;;;;;;;9.30;4.63;;;;;;;;;;5073280;28;20036;-33
2024/03/15 08:46:46;;;;;;;6.80;3.70;;;;;;;;;;5073432;28;20032;-34
2024/03/15 08:49:15;;;;;;;6.90;3.83;;;;;;;;;;5073469;28;20465;-34
2024/03/15 08:51:46;;;;;;;7.38;4.20;;;;;;;;;;5073143;28;20498;-33
2024/03/15 08:54:13;;;;;;;7.18;4.13;;;;;;;;;;5073384;28;20479;-33
2024/03/15 08:56:40;;;;;;;7.88;4.35;;;;;;;;;;5073233;28;20025;-37
2024/03/15 08:59:07;;;;;;;6.03;3.90;;;;;;;;;;5072709;28;20583;-36
2024/03/15 09:01:34;;;;;;;6.85;4.10;;;;;;;;;;5066466;28;20036;-33
2024/03/15 09:04:05;;;;;;;7.32;4.38;;;;;;;;;;5073355;28;20103;-35
2024/03/15 09:06:36;;;;;;;6.97;3.95;;;;;;;;;;5051515;28;20041;-33
2024/03/15 09:09:32;;;;;;;7.60;4.15;;;;;;;;;;5070982;28;20129;-35
2024/03/15 09:11:50;;;;;;;7.13;4.25;;;;;;;;;;5065812;28;20045;-34
2024/03/15 09:14:20;;;;;;;8.05;4.57;;;;;;;;;;5058663;28;20035;-32
2024/03/15 09:16:50;;;;;;;7.45;4.38;;;;;;;;;;5057557;28;20032;-33
2024/03/15 09:19:20;;;;;;;8.25;4.95;;;;;;;;;;5061196;28;20032;-33
2024/03/15 09:21:48;;;;;;;7.85;4.30;;;;;;;;;;5060761;28;20048;-32
2024/03/15 09:24:17;;;;;;;8.45;4.88;;;;;;;;;;5063008;28;20033;-33
2024/03/15 09:26:45;;;;;;;7.97;4.57;;;;;;;;;;5060131;28;20119;-36
2024/03/15 09:29:12;;;;;;;7.90;4.18;;;;;;;;;;5061115;28;20102;-35
2024/03/15 09:31:40;;;;;;;7.57;4.43;;;;;;;;;;5063205;28;20028;-33
2024/03/15 09:34:10;;;;;;;7.47;4.85;;;;;;;;;;5064078;28;20103;-33
2024/03/15 09:36:38;;;;;;;7.43;5.05;;;;;;;;;;5054447;28;20049;-35
2024/03/15 09:39:05;;;;;;;8.73;4.90;;;;;;;;;;5051811;28;20064;-36
2024/03/15 09:41:32;;;;;;;8.07;4.75;;;;;;;;;;5061035;28;20044;-34
2024/03/15 09:43:59;;;;;;;8.73;5.07;;;;;;;;;;5062502;28;20027;-36
2024/03/15 09:46:28;;;;;;;14.13;5.43;;;;;;;;;;5066889;28;20047;-33
2024/03/15 09:48:56;;;;;;;10.15;5.22;;;;;;;;;;5071642;28;20033;-34
2024/03/15 09:51:23;;;;;;;9.52;5.28;;;;;;;;;;5071788;28;20025;-33
2024/03/15 09:53:50;;;;;;;10.13;5.70;;;;;;;;;;5071845;28;20025;-35
2024/03/15 09:56:18;;;;;;;10.77;5.65;;;;;;;;;;5071783;28;20039;-34
2024/03/15 09:58:51;;;;;;;9.77;5.53;;;;;;;;;;5071693;28;20040;-33
2024/03/15 10:01:18;;;;;;;11.23;5.65;;;;;;;;;;5071739;28;20035;-33
2024/03/15 10:03:48;;;;;;;14.05;6.20;;;;;;;;;;5071717;28;20067;-34
2024/03/15 10:06:16;;;;;;;9.07;5.85;;;;;;;;;;5071645;28;20033;-33
2024/03/15 10:08:43;;;;;;;10.63;5.97;;;;;;;;;;5071454;28;20524;-34
2024/03/15 10:11:10;;;;;;;11.57;6.00;;;;;;;;;;5071474;28;20129;-32
2024/03/15 10:13:38;;;;;;;14.23;5.82;;;;;;;;;;5071459;28;20028;-34
2024/03/15 10:16:05;;;;;;;16.35;5.82;;;;;;;;;;5071487;28;20029;-36
2024/03/15 10:18:42;;;;;;;12.75;5.85;;;;;;;;;;5071401;28;20425;-33
2024/03/15 10:21:09;;;;;;;14.45;6.00;;;;;;;;;;5071439;28;20028;-35
2024/03/15 10:23:36;;;;;;;13.25;5.88;;;;;;;;;;5071517;28;20056;-33
2024/03/15 10:26:03;;;;;;;12.95;5.97;;;;;;;;;;5071394;28;20058;-36
2024/03/15 10:28:30;;;;;;;12.38;5.70;;;;;;;;;;5071373;28;20499;-33
2024/03/15 10:30:57;;;;;;;17.52;5.47;;;;;;;;;;5071494;28;20036;-33
2024/03/15 10:33:24;;;;;;;13.85;5.38;;;;;;;;;;5071472;28;20096;-33
2024/03/15 10:35:51;;;;;;;11.05;5.07;;;;;;;;;;5071481;28;20044;-35
2024/03/15 10:38:18;;;;;;;17.63;5.32;;;;;;;;;;5071247;28;20616;-34
2024/03/15 10:40:47;;;;;;;12.63;5.60;;;;;;;;;;5071266;28;20032;-33
2024/03/15 10:43:13;;;;;;;11.35;5.13;;;;;;;;;;5071138;28;20063;-33
2024/03/15 10:45:43;;;;;;;11.63;4.82;;;;;;;;;;5071260;28;20033;-33
2024/03/15 10:48:11;;;;;;;14.80;5.13;;;;;;;;;;5071222;28;20025;-35
2024/03/15 10:50:38;;;;;;;8.63;4.57;;;;;;;;;;5071066;28;20032;-33
2024/03/15 10:53:14;;;;;;;11.38;4.85;;;;;;;;;;5071227;28;20031;-32
2024/03/15 10:55:45;;;;;;;12.73;4.60;;;;;;;;;;5071215;28;20029;-32
2024/03/15 10:58:12;;;;;;;14.90;4.22;;;;;;;;;;5071088;28;20032;-33
2024/03/15 11:00:39;;;;;;;14.45;4.47;;;;;;;;;;5071107;28;20032;-35
2024/03/15 11:03:33;;;;;;;12.77;4.60;;;;;;;;;;5071080;28;20510;-34
2024/03/15 11:06:05;;;;;;;16.77;4.30;;;;;;;;;;5068734;28;20053;-33
2024/03/15 11:08:35;;;;;;;14.23;4.90;;;;;;;;;;5070755;28;20067;-33
2024/03/15 11:11:02;;;;;;;11.05;3.75;;;;;;;;;;5071119;28;20032;-33
2024/03/15 11:13:36;;;;;;;16.27;4.60;;;;;;;;;;5070936;28;20028;-33
2024/03/15 11:16:24;;;;;;;13.73;4.30;;;;;;;;;;5071086;28;20048;-33
2024/03/15 11:18:51;;;;;;;9.38;4.05;;;;;;;;;;5070868;28;20552;-34
2024/03/15 11:21:22;;;;;;;13.18;4.20;;;;;;;;;;5071000;28;20025;-33
2024/03/15 11:23:49;;;;;;;7.53;3.55;;;;;;;;;;5071432;28;20107;-33
2024/03/15 11:26:20;;;;;;;17.27;4.03;;;;;;;;;;5074452;28;20077;-34
2024/03/15 11:28:54;;;;;;;14.20;3.33;;;;;;;;;;5074506;28;20028;-33
2024/03/15 11:31:25;;;;;;;7.80;3.67;;;;;;;;;;5065890;28;20071;-33
2024/03/15 11:33:55;;;;;;;10.25;3.33;;;;;;;;;;5074181;28;20029;-32
2024/03/15 11:36:22;;;;;;;8.27;3.30;;;;;;;;;;5073823;28;20032;-32
2024/03/15 11:38:50;;;;;;;8.43;3.25;;;;;;;;;;5074076;28;20507;-34
2024/03/15 11:41:20;;;;;;;15.80;3.40;;;;;;;;;;5074263;28;20028;-32
2024/03/15 11:43:48;;;;;;;8.57;3.15;;;;;;;;;;5074107;28;20535;-35
2024/03/15 11:46:16;;;;;;;9.82;3.78;;;;;;;;;;5056081;28;20125;-36
2024/03/15 11:48:45;;;;;;;10.32;3.42;;;;;;;;;;5074055;28;20028;-33
2024/03/15 11:51:13;;;;;;;12.70;3.05;;;;;;;;;;5079272;28;20032;-34
2024/03/15 11:53:41;;;;;;;12.10;3.65;;;;;;;;;;5073874;28;20098;-36
2024/03/15 11:56:08;;;;;;;9.80;3.28;;;;;;;;;;5074018;28;20115;-35
2024/03/15 11:58:42;;;;;;;16.02;3.20;;;;;;;;;;5073807;28;20028;-36
2024/03/15 12:01:10;;;;;;;14.65;2.88;;;;;;;;;;5073794;28;20025;-34
2024/03/15 12:03:38;;;;;;;15.00;3.10;;;;;;;;;;5073691;28;20044;-34
2024/03/15 12:06:07;;;;;;;9.00;2.72;;;;;;;;;;5073664;28;20390;-34
2024/03/15 12:08:34;;;;;;;7.95;2.85;;;;;;;;;;5073379;28;20063;-34
2024/03/15 12:11:01;;;;;;;8.88;2.78;;;;;;;;;;5073723;28;20548;-35
2024/03/15 12:13:29;;;;;;;7.35;2.55;;;;;;;;;;5073714;28;20372;-34
2024/03/15 12:15:57;;;;;;;7.85;2.83;;;;;;;;;;5055583;28;20086;-35
2024/03/15 12:18:26;;;;;;;8.70;2.85;;;;;;;;;;5073544;28;20105;-33
2024/03/15 12:20:54;;;;;;;6.63;2.88;;;;;;;;;;5073338;28;20028;-33
2024/03/15 12:23:22;;;;;;;6.93;2.42;;;;;;;;;;5073526;28;20028;-34
2024/03/15 12:25:49;;;;;;;6.43;2.40;;;;;;;;;;5073380;28;20032;-35
2024/03/15 12:28:20;;;;;;;8.32;2.58;;;;;;;;;;5073215;28;20039;-34
2024/03/15 12:30:53;;;;;;;8.05;2.58;;;;;;;;;;5073388;28;20029;-33
2024/03/15 12:33:19;;;;;;;;;;;;;;;;;;5073588;28;20067;-34
2024/03/15 12:35:48;;;;;;;9.20;2.47;;;;;;;;;;5072945;28;19904;-33
2024/03/15 12:38:21;;;;;;;9.65;2.53;;;;;;;;;;5073082;28;20082;-33
2024/03/15 12:40:49;;;;;;;10.15;2.50;;;;;;;;;;5073085;28;20031;-33
2024/03/15 12:43:16;;;;;;;6.10;2.25;;;;;;;;;;5073154;28;20389;-33
2024/03/15 12:45:43;;;;;;;7.18;2.30;;;;;;;;;;5081251;28;20478;-36
2024/03/15 12:48:13;;;;;;;4.85;2.10;;;;;;;;;;5081095;28;20033;-34
2024/03/15 12:50:40;;;;;;;7.97;2.28;;;;;;;;;;5049071;28;20175;-34
2024/03/15 12:53:11;;;;;;;6.15;2.20;;;;;;;;;;5059366;28;20028;-33
2024/03/15 12:55:40;;;;;;;7.93;2.20;;;;;;;;;;5062998;28;20077;-36
2024/03/15 12:58:07;;;;;;;5.35;2.03;;;;;;;;;;5061799;28;20035;-38
2024/03/15 13:00:34;;;;;;;6.13;1.90;;;;;;;;;;5061462;28;20036;-34
2024/03/15 13:03:04;;;;;;;7.20;2.03;;;;;;;;;;5063033;28;20039;-34
2024/03/15 13:05:31;;;;;;;6.45;1.98;;;;;;;;;;5062106;28;20056;-34
2024/03/15 13:07:58;;;;;;;4.35;1.70;;;;;;;;;;5063513;28;20102;-34
2024/03/15 13:10:25;;;;;;;8.65;2.30;;;;;;;;;;5061168;28;20025;-33
2024/03/15 13:12:56;;;;;;;4.97;1.90;;;;;;;;;;5061793;28;20024;-33
2024/03/15 13:15:23;;;;;;;6.18;1.90;;;;;;;;;;5062880;28;20548;-36
2024/03/15 13:17:54;;;;;;;8.13;2.22;;;;;;;;;;5061854;28;20159;-35
2024/03/15 13:20:21;;;;;;;6.47;1.70;;;;;;;;;;5062738;28;20020;-36
2024/03/15 13:22:56;;;;;;;7.95;2.00;;;;;;;;;;5043613;28;20033;-34
2024/03/15 13:25:23;;;;;;;7.00;2.10;;;;;;;;;;5060586;28;20075;-34
2024/03/15 13:27:51;;;;;;;5.72;1.90;;;;;;;;;;5061604;28;20122;-37
2024/03/15 13:30:19;;;;;;;4.85;1.85;;;;;;;;;;5062470;28;20062;-34
2024/03/15 13:32:46;;;;;;;5.55;2.15;;;;;;;;;;5058661;28;20391;-33
2024/03/15 13:35:16;;;;;;;6.28;1.90;;;;;;;;;;5062142;28;20474;-35
2024/03/15 13:37:44;;;;;;;8.15;1.90;;;;;;;;;;5062353;28;20111;-33
2024/03/15 13:40:15;;;;;;;5.38;1.83;;;;;;;;;;5060474;28;20502;-35
2024/03/15 13:42:50;;;;;;;5.43;2.00;;;;;;;;;;5060522;28;20021;-34
2024/03/15 13:45:17;;;;;;;4.60;1.85;;;;;;;;;;5057678;28;20040;-36
2024/03/15 13:47:46;;;;;;;11.02;1.90;;;;;;;;;;5060322;28;20494;-33
2024/03/15 13:50:17;;;;;;;6.05;1.85;;;;;;;;;;5071117;28;20039;-34
2024/03/15 13:52:44;;;;;;;5.63;1.92;;;;;;;;;;5065124;28;20025;-33
2024/03/15 13:55:11;;;;;;;3.15;1.60;;;;;;;;;;5058871;28;20071;-34
2024/03/15 13:57:42;;;;;;;5.63;1.88;;;;;;;;;;5059485;28;20032;-33
2024/03/15 14:02:55;;;;;;;8.23;2.00;;;;;;;;;;5061729;28;20121;-33
2024/03/15 14:05:22;;;;;;;5.40;1.92;;;;;;;;;;5059848;28;20479;-34
2024/03/15 14:07:50;;;;;;;8.63;2.30;;;;;;;;;;5061103;28;20079;-35
2024/03/15 14:10:20;;;;;;;8.13;2.20;;;;;;;;;;5060966;28;20391;-33
2024/03/15 14:12:49;;;;;;;6.03;1.80;;;;;;;;;;5042533;28;20059;-34
2024/03/15 14:15:19;;;;;;;5.15;2.08;;;;;;;;;;5061954;28;20033;-37
2024/03/15 14:17:52;;;;;;;8.45;2.10;;;;;;;;;;5061047;28;20398;-36
2024/03/15 14:20:19;;;;;;;7.38;2.10;;;;;;;;;;5059778;28;20079;-35
2024/03/15 14:22:47;;;;;;;7.07;2.30;;;;;;;;;;5042711;28;20111;-33
2024/03/15 14:25:16;;;;;;;11.45;2.45;;;;;;;;;;5061805;28;20120;-33
2024/03/15 14:27:46;;;;;;;6.30;1.73;;;;;;;;;;5060699;28;20100;-33
2024/03/15 14:30:16;;;;;;;9.27;2.25;;;;;;;;;;5059189;28;20040;-34
2024/03/15 14:32:45;;;;;;;6.78;2.22;;;;;;;;;;5063118;28;20120;-36
2024/03/15 14:35:14;;;;;;;6.88;1.92;;;;;;;;;;5060915;28;20079;-35
2024/03/15 14:37:45;;;;;;;8.07;2.17;;;;;;;;;;5059418;28;20037;-33
2024/03/15 14:40:18;;;;;;;9.48;2.75;;;;;;;;;;5062964;28;20090;-33
2024/03/15 14:42:48;;;;;;;8.85;2.15;;;;;;;;;;5064392;28;20025;-35
2024/03/15 14:45:16;;;;;;;9.95;2.47;;;;;;;;;;5059091;28;20426;-36
2024/03/15 14:47:43;;;;;;;9.25;2.00;;;;;;;;;;5061583;28;20776;-37